Aviation Digital Data Service (ADDS)

Output produced by METARs form (1119 UTC 17 June 2019)
found at http://www.aviationweather.gov/metar/data/
 
METAR text: LTAZ 171050Z VRB05KT 9999 SCT040 28/13 Q1011 RMK RWY29 34009KT 290V020
Conditions at: LTAZ (NEVSEHIR , TR) observed 1050 UTC 17 June 2019
Temperature: 28.0°C (82°F)
Dewpoint: 13.0°C (55°F) [RH = 40%]
Pressure (altimeter): 29.85 inches Hg (1011.0 mb)
Winds: variable direction winds at 6 MPH (5 knots; 2.6 m/s)
Visibility: 6 or more miles (10+ km)
Ceiling: at least 12,000 feet AGL
Clouds: scattered clouds at 4000 feet AGL
Weather: no significant weather observed at this time

METAR text: LTAZ 171020Z 23005KT 150V320 9999 SCT040 27/14 Q1011 RMK RWY29 32009KT 270V350
Conditions at: LTAZ (NEVSEHIR , TR) observed 1020 UTC 17 June 2019
Temperature: 27.0°C (81°F)
Dewpoint: 14.0°C (57°F) [RH = 45%]
Pressure (altimeter): 29.85 inches Hg (1011.0 mb)
Winds: from the SW (230 degrees) at 6 MPH (5 knots; 2.6 m/s)
Visibility: 6 or more miles (10+ km)
Ceiling: at least 12,000 feet AGL
Clouds: scattered clouds at 4000 feet AGL
Weather: no significant weather observed at this time

METAR text: LTAZ 170950Z 27006KT 220V330 9999 SCT040 27/15 Q1012 RMK RWY29 VRB06KT
Conditions at: LTAZ (NEVSEHIR , TR) observed 0950 UTC 17 June 2019
Temperature: 27.0°C (81°F)
Dewpoint: 15.0°C (59°F) [RH = 48%]
Pressure (altimeter): 29.88 inches Hg (1012.0 mb)
Winds: from the W (270 degrees) at 7 MPH (6 knots; 3.1 m/s)
Visibility: 6 or more miles (10+ km)
Ceiling: at least 12,000 feet AGL
Clouds: scattered clouds at 4000 feet AGL
Weather: no significant weather observed at this time

METAR text: LTAZ 170920Z 26003KT 210V010 9999 FEW040 26/15 Q1012 RMK RWY29 VRB05KT
Conditions at: LTAZ (NEVSEHIR , TR) observed 0920 UTC 17 June 2019
Temperature: 26.0°C (79°F)
Dewpoint: 15.0°C (59°F) [RH = 51%]
Pressure (altimeter): 29.88 inches Hg (1012.0 mb)
Winds: from the W (260 degrees) at 3 MPH (3 knots; 1.5 m/s)
Visibility: 6 or more miles (10+ km)
Ceiling: at least 12,000 feet AGL
Clouds: few clouds at 4000 feet AGL
Weather: no significant weather observed at this time

METAR text: LTAZ 170850Z 20003KT 120V250 9999 FEW040 25/15 Q1012 RMK RWY29 25004KT 170V310
Conditions at: LTAZ (NEVSEHIR , TR) observed 0850 UTC 17 June 2019
Temperature: 25.0°C (77°F)
Dewpoint: 15.0°C (59°F) [RH = 54%]
Pressure (altimeter): 29.88 inches Hg (1012.0 mb)
Winds: from the SSW (200 degrees) at 3 MPH (3 knots; 1.5 m/s)
Visibility: 6 or more miles (10+ km)
Ceiling: at least 12,000 feet AGL
Clouds: few clouds at 4000 feet AGL
Weather: no significant weather observed at this time

METAR text: LTAZ 170820Z 19006KT 150V260 9999 FEW040 25/15 Q1012 RMK RWY29 27005KT 190V320
Conditions at: LTAZ (NEVSEHIR , TR) observed 0820 UTC 17 June 2019
Temperature: 25.0°C (77°F)
Dewpoint: 15.0°C (59°F) [RH = 54%]
Pressure (altimeter): 29.88 inches Hg (1012.0 mb)
Winds: from the S (190 degrees) at 7 MPH (6 knots; 3.1 m/s)
Visibility: 6 or more miles (10+ km)
Ceiling: at least 12,000 feet AGL
Clouds: few clouds at 4000 feet AGL
Weather: no significant weather observed at this time

METAR text: LTAZ 170750Z 23004KT 200V260 9999 FEW040 23/15 Q1013 RMK RWY29 25006KT 200V300
Conditions at: LTAZ (NEVSEHIR , TR) observed 0750 UTC 17 June 2019
Temperature: 23.0°C (73°F)
Dewpoint: 15.0°C (59°F) [RH = 61%]
Pressure (altimeter): 29.91 inches Hg (1013.0 mb)
Winds: from the SW (230 degrees) at 5 MPH (4 knots; 2.1 m/s)
Visibility: 6 or more miles (10+ km)
Ceiling: at least 12,000 feet AGL
Clouds: few clouds at 4000 feet AGL
Weather: no significant weather observed at this time

METAR text: LTAZ 170720Z VRB02KT 9999 FEW040 SCT180 22/15 Q1013 RMK RWY29 VRB03KT
Conditions at: LTAZ (NEVSEHIR , TR) observed 0720 UTC 17 June 2019
Temperature: 22.0°C (72°F)
Dewpoint: 15.0°C (59°F) [RH = 65%]
Pressure (altimeter): 29.91 inches Hg (1013.0 mb)
Winds: variable direction winds at 2 MPH (2 knots; 1.0 m/s)
Visibility: 6 or more miles (10+ km)
Ceiling: at least 12,000 feet AGL
Clouds: few clouds at 4000 feet AGL
scattered clouds at 18000 feet AGL
Weather: no significant weather observed at this time

METAR text: LTAZ 170650Z VRB02KT 9999 FEW040 SCT180 21/15 Q1012 RMK RWY29 26004KT 160V330
Conditions at: LTAZ (NEVSEHIR , TR) observed 0650 UTC 17 June 2019
Temperature: 21.0°C (70°F)
Dewpoint: 15.0°C (59°F) [RH = 69%]
Pressure (altimeter): 29.88 inches Hg (1012.0 mb)
Winds: variable direction winds at 2 MPH (2 knots; 1.0 m/s)
Visibility: 6 or more miles (10+ km)
Ceiling: at least 12,000 feet AGL
Clouds: few clouds at 4000 feet AGL
scattered clouds at 18000 feet AGL
Weather: no significant weather observed at this time

METAR text: LTAZ 170620Z VRB01KT CAVOK 21/16 Q1012 RMK RWY29 28004KT 230V350
Conditions at: LTAZ (NEVSEHIR , TR) observed 0620 UTC 17 June 2019
Temperature: 21.0°C (70°F)
Dewpoint: 16.0°C (61°F) [RH = 73%]
Pressure (altimeter): 29.88 inches Hg (1012.0 mb)
Winds: variable direction winds at 1 MPH (1 knots; 0.5 m/s)
Visibility: 6 or more miles (10+ km)
Ceiling: ceiling and visibility are OK
Clouds: unknown
Weather: no significant weather observed at this time

METAR text: LTAZ 170550Z 00000KT CAVOK 20/16 Q1012 RMK RWY29 VRB01KT
Conditions at: LTAZ (NEVSEHIR , TR) observed 0550 UTC 17 June 2019
Temperature: 20.0°C (68°F)
Dewpoint: 16.0°C (61°F) [RH = 78%]
Pressure (altimeter): 29.88 inches Hg (1012.0 mb)
Winds: calm
Visibility: 6 or more miles (10+ km)
Ceiling: ceiling and visibility are OK
Clouds: unknown
Weather: no significant weather observed at this time

METAR text: LTAZ 170520Z VRB01KT CAVOK 19/16 Q1012 RMK RWY29 VRB02KT
Conditions at: LTAZ (NEVSEHIR , TR) observed 0520 UTC 17 June 2019
Temperature: 19.0°C (66°F)
Dewpoint: 16.0°C (61°F) [RH = 83%]
Pressure (altimeter): 29.88 inches Hg (1012.0 mb)
Winds: variable direction winds at 1 MPH (1 knots; 0.5 m/s)
Visibility: 6 or more miles (10+ km)
Ceiling: ceiling and visibility are OK
Clouds: unknown
Weather: no significant weather observed at this time

METAR text: LTAZ 170450Z VRB02KT 9999 FEW040 18/15 Q1012 RMK RWY29 VRB02KT
Conditions at: LTAZ (NEVSEHIR , TR) observed 0450 UTC 17 June 2019
Temperature: 18.0°C (64°F)
Dewpoint: 15.0°C (59°F) [RH = 83%]
Pressure (altimeter): 29.88 inches Hg (1012.0 mb)
Winds: variable direction winds at 2 MPH (2 knots; 1.0 m/s)
Visibility: 6 or more miles (10+ km)
Ceiling: at least 12,000 feet AGL
Clouds: few clouds at 4000 feet AGL
Weather: no significant weather observed at this time

METAR text: LTAZ 170420Z 21004KT 9999 SCT040 17/15 Q1012 RMK RWY29 04003KT 010V070
Conditions at: LTAZ (NEVSEHIR , TR) observed 0420 UTC 17 June 2019
Temperature: 17.0°C (63°F)
Dewpoint: 15.0°C (59°F) [RH = 88%]
Pressure (altimeter): 29.88 inches Hg (1012.0 mb)
Winds: from the SSW (210 degrees) at 5 MPH (4 knots; 2.1 m/s)
Visibility: 6 or more miles (10+ km)
Ceiling: at least 12,000 feet AGL
Clouds: scattered clouds at 4000 feet AGL
Weather: no significant weather observed at this time

METAR text: LTAZ 170350Z 21005KT 9999 SCT040 16/15 Q1012 RMK RWY29 VRB02KT
Conditions at: LTAZ (NEVSEHIR , TR) observed 0350 UTC 17 June 2019
Temperature: 16.0°C (61°F)
Dewpoint: 15.0°C (59°F) [RH = 94%]
Pressure (altimeter): 29.88 inches Hg (1012.0 mb)
Winds: from the SSW (210 degrees) at 6 MPH (5 knots; 2.6 m/s)
Visibility: 6 or more miles (10+ km)
Ceiling: at least 12,000 feet AGL
Clouds: scattered clouds at 4000 feet AGL
Weather: no significant weather observed at this time

METAR text: LTAZ 170320Z VRB01KT 9999 SCT040 16/14 Q1012 RMK RWY29 VRB02KT
Conditions at: LTAZ (NEVSEHIR , TR) observed 0320 UTC 17 June 2019
Temperature: 16.0°C (61°F)
Dewpoint: 14.0°C (57°F) [RH = 88%]
Pressure (altimeter): 29.88 inches Hg (1012.0 mb)
Winds: variable direction winds at 1 MPH (1 knots; 0.5 m/s)
Visibility: 6 or more miles (10+ km)
Ceiling: at least 12,000 feet AGL
Clouds: scattered clouds at 4000 feet AGL
Weather: no significant weather observed at this time

METAR text: LTAZ 170250Z 23005KT 9999 SCT040 15/14 Q1012 RMK RWY29 23003KT
Conditions at: LTAZ (NEVSEHIR , TR) observed 0250 UTC 17 June 2019
Temperature: 15.0°C (59°F)
Dewpoint: 14.0°C (57°F) [RH = 94%]
Pressure (altimeter): 29.88 inches Hg (1012.0 mb)
Winds: from the SW (230 degrees) at 6 MPH (5 knots; 2.6 m/s)
Visibility: 6 or more miles (10+ km)
Ceiling: at least 12,000 feet AGL
Clouds: scattered clouds at 4000 feet AGL
Weather: no significant weather observed at this time

METAR text: LTAZ 170220Z 22006KT 9999 SCT040 15/14 Q1011 RMK RWY29 00000KT
Conditions at: LTAZ (NEVSEHIR , TR) observed 0220 UTC 17 June 2019
Temperature: 15.0°C (59°F)
Dewpoint: 14.0°C (57°F) [RH = 94%]
Pressure (altimeter): 29.85 inches Hg (1011.0 mb)
Winds: from the SW (220 degrees) at 7 MPH (6 knots; 3.1 m/s)
Visibility: 6 or more miles (10+ km)
Ceiling: at least 12,000 feet AGL
Clouds: scattered clouds at 4000 feet AGL
Weather: no significant weather observed at this time

METAR text: LTAZ 170150Z 22005KT 9999 SCT040 15/14 Q1011 RMK RWY29 00000KT
Conditions at: LTAZ (NEVSEHIR , TR) observed 0150 UTC 17 June 2019
Temperature: 15.0°C (59°F)
Dewpoint: 14.0°C (57°F) [RH = 94%]
Pressure (altimeter): 29.85 inches Hg (1011.0 mb)
Winds: from the SW (220 degrees) at 6 MPH (5 knots; 2.6 m/s)
Visibility: 6 or more miles (10+ km)
Ceiling: at least 12,000 feet AGL
Clouds: scattered clouds at 4000 feet AGL
Weather: no significant weather observed at this time

METAR text: LTAZ 170120Z 22005KT 9999 SCT040 15/14 Q1011 RMK RWY29 21003KT
Conditions at: LTAZ (NEVSEHIR , TR) observed 0120 UTC 17 June 2019
Temperature: 15.0°C (59°F)
Dewpoint: 14.0°C (57°F) [RH = 94%]
Pressure (altimeter): 29.85 inches Hg (1011.0 mb)
Winds: from the SW (220 degrees) at 6 MPH (5 knots; 2.6 m/s)
Visibility: 6 or more miles (10+ km)
Ceiling: at least 12,000 feet AGL
Clouds: scattered clouds at 4000 feet AGL
Weather: no significant weather observed at this time

METAR text: LTAZ 170050Z 00000KT 9999 SCT040 15/14 Q1011 RMK RWY29 00000KT
Conditions at: LTAZ (NEVSEHIR , TR) observed 0050 UTC 17 June 2019
Temperature: 15.0°C (59°F)
Dewpoint: 14.0°C (57°F) [RH = 94%]
Pressure (altimeter): 29.85 inches Hg (1011.0 mb)
Winds: calm
Visibility: 6 or more miles (10+ km)
Ceiling: at least 12,000 feet AGL
Clouds: scattered clouds at 4000 feet AGL
Weather: no significant weather observed at this time

METAR text: LTAZ 170020Z VRB02KT 9999 SCT040 15/14 Q1011 RMK RWY29 33004KT
Conditions at: LTAZ (NEVSEHIR , TR) observed 0020 UTC 17 June 2019
Temperature: 15.0°C (59°F)
Dewpoint: 14.0°C (57°F) [RH = 94%]
Pressure (altimeter): 29.85 inches Hg (1011.0 mb)
Winds: variable direction winds at 2 MPH (2 knots; 1.0 m/s)
Visibility: 6 or more miles (10+ km)
Ceiling: at least 12,000 feet AGL
Clouds: scattered clouds at 4000 feet AGL
Weather: no significant weather observed at this time

METAR text: LTAZ 162350Z 20004KT 9999 SCT040 16/14 Q1011 RMK RWY29 22004KT
Conditions at: LTAZ (NEVSEHIR , TR) observed 2350 UTC 16 June 2019
Temperature: 16.0°C (61°F)
Dewpoint: 14.0°C (57°F) [RH = 88%]
Pressure (altimeter): 29.85 inches Hg (1011.0 mb)
Winds: from the SSW (200 degrees) at 5 MPH (4 knots; 2.1 m/s)
Visibility: 6 or more miles (10+ km)
Ceiling: at least 12,000 feet AGL
Clouds: scattered clouds at 4000 feet AGL
Weather: no significant weather observed at this time

METAR text: LTAZ 162320Z 30004KT 220V330 9999 SCT040 16/15 Q1012 RMK RWY29 VRB02KT
Conditions at: LTAZ (NEVSEHIR , TR) observed 2320 UTC 16 June 2019
Temperature: 16.0°C (61°F)
Dewpoint: 15.0°C (59°F) [RH = 94%]
Pressure (altimeter): 29.88 inches Hg (1012.0 mb)
Winds: from the WNW (300 degrees) at 5 MPH (4 knots; 2.1 m/s)
Visibility: 6 or more miles (10+ km)
Ceiling: at least 12,000 feet AGL
Clouds: scattered clouds at 4000 feet AGL
Weather: no significant weather observed at this time

METAR text: LTAZ 162250Z 27003KT 230V330 9999 SCT040 16/15 Q1012 RMK RWY29 25006KT 200V290
Conditions at: LTAZ (NEVSEHIR , TR) observed 2250 UTC 16 June 2019
Temperature: 16.0°C (61°F)
Dewpoint: 15.0°C (59°F) [RH = 94%]
Pressure (altimeter): 29.88 inches Hg (1012.0 mb)
Winds: from the W (270 degrees) at 3 MPH (3 knots; 1.5 m/s)
Visibility: 6 or more miles (10+ km)
Ceiling: at least 12,000 feet AGL
Clouds: scattered clouds at 4000 feet AGL
Weather: no significant weather observed at this time

METAR text: LTAZ 162220Z 00000KT 9999 SCT040 17/15 Q1012 RMK RWY29 VRB02KT
Conditions at: LTAZ (NEVSEHIR , TR) observed 2220 UTC 16 June 2019
Temperature: 17.0°C (63°F)
Dewpoint: 15.0°C (59°F) [RH = 88%]
Pressure (altimeter): 29.88 inches Hg (1012.0 mb)
Winds: calm
Visibility: 6 or more miles (10+ km)
Ceiling: at least 12,000 feet AGL
Clouds: scattered clouds at 4000 feet AGL
Weather: no significant weather observed at this time

METAR text: LTAZ 162150Z VRB02KT 9999 SCT040 18/15 Q1012 RMK RWY29 20006KT 170V230
Conditions at: LTAZ (NEVSEHIR , TR) observed 2150 UTC 16 June 2019
Temperature: 18.0°C (64°F)
Dewpoint: 15.0°C (59°F) [RH = 83%]
Pressure (altimeter): 29.88 inches Hg (1012.0 mb)
Winds: variable direction winds at 2 MPH (2 knots; 1.0 m/s)
Visibility: 6 or more miles (10+ km)
Ceiling: at least 12,000 feet AGL
Clouds: scattered clouds at 4000 feet AGL
Weather: no significant weather observed at this time

METAR text: LTAZ 162050Z VRB04KT 9999 FEW030CB BKN033 19/15 Q1012 RMK RWY29 VRB02KT
Conditions at: LTAZ (NEVSEHIR , TR) observed 2050 UTC 16 June 2019
Temperature: 19.0°C (66°F)
Dewpoint: 15.0°C (59°F) [RH = 78%]
Pressure (altimeter): 29.88 inches Hg (1012.0 mb)
Winds: variable direction winds at 5 MPH (4 knots; 2.1 m/s)
Visibility: 6 or more miles (10+ km)
Ceiling: 3300 feet AGL
Clouds: few clouds at 3000 feet AGL
broken clouds at 3300 feet AGL
Weather: no significant weather observed at this time

METAR text: LTAZ 162020Z VRB01KT 9999 SCT025CB SCT030 18/16 Q1012 RETSRA RMK RWY29 13003KT 090V160
Conditions at: LTAZ (NEVSEHIR , TR) observed 2020 UTC 16 June 2019
Temperature: 18.0°C (64°F)
Dewpoint: 16.0°C (61°F) [RH = 88%]
Pressure (altimeter): 29.88 inches Hg (1012.0 mb)
Winds: variable direction winds at 1 MPH (1 knots; 0.5 m/s)
Visibility: 6 or more miles (10+ km)
Ceiling: at least 12,000 feet AGL
Clouds: scattered clouds at 2500 feet AGL
scattered clouds at 3000 feet AGL
Weather: no significant weather observed at this time

METAR text: LTAZ 161950Z VRB04KT 9999 -TSRA SCT025CB SCT030 18/16 Q1012 RETSRA RMK RWY29 VRB03KT
Conditions at: LTAZ (NEVSEHIR , TR) observed 1950 UTC 16 June 2019
Temperature: 18.0°C (64°F)
Dewpoint: 16.0°C (61°F) [RH = 88%]
Pressure (altimeter): 29.88 inches Hg (1012.0 mb)
Winds: variable direction winds at 5 MPH (4 knots; 2.1 m/s)
Visibility: 6 or more miles (10+ km)
Ceiling: at least 12,000 feet AGL
Clouds: scattered clouds at 2500 feet AGL
scattered clouds at 3000 feet AGL
Weather: -TSRA  (light rain associated with thunderstorm(s))

METAR text: LTAZ 161920Z 26006KT 210V310 8000 -TSRA SCT025CB SCT030 17/15 Q1012 RETSRA RMK RWY29 26012KT
Conditions at: LTAZ (NEVSEHIR , TR) observed 1920 UTC 16 June 2019
Temperature: 17.0°C (63°F)
Dewpoint: 15.0°C (59°F) [RH = 88%]
Pressure (altimeter): 29.88 inches Hg (1012.0 mb)
Winds: from the W (260 degrees) at 7 MPH (6 knots; 3.1 m/s)
Visibility: 5 miles ( 8 km)
Ceiling: at least 12,000 feet AGL
Clouds: scattered clouds at 2500 feet AGL
scattered clouds at 3000 feet AGL
Weather: -TSRA  (light rain associated with thunderstorm(s))

METAR text: LTAZ 161850Z 20012KT 9999 TS SCT027CB SCT030 19/15 Q1012 RETSGRRA RMK RWY29 20012KT
Conditions at: LTAZ (NEVSEHIR , TR) observed 1850 UTC 16 June 2019
Temperature: 19.0°C (66°F)
Dewpoint: 15.0°C (59°F) [RH = 78%]
Pressure (altimeter): 29.88 inches Hg (1012.0 mb)
Winds: from the SSW (200 degrees) at 14 MPH (12 knots; 6.2 m/s)
Visibility: 6 or more miles (10+ km)
Ceiling: at least 12,000 feet AGL
Clouds: scattered clouds at 2700 feet AGL
scattered clouds at 3000 feet AGL
Weather: TS  (thunderstorm)

METAR text: LTAZ 161820Z 29007KT 270V330 4000 +TSGRRA SCT025CB SCT030 19/15 Q1011 RETSRA RMK RWY29 26016G26KT
Conditions at: LTAZ (NEVSEHIR , TR) observed 1820 UTC 16 June 2019
Temperature: 19.0°C (66°F)
Dewpoint: 15.0°C (59°F) [RH = 78%]
Pressure (altimeter): 29.85 inches Hg (1011.0 mb)
Winds: from the WNW (290 degrees) at 8 MPH (7 knots; 3.6 m/s)
Visibility: 2.49 miles (4.01 km)
Ceiling: at least 12,000 feet AGL
Clouds: scattered clouds at 2500 feet AGL
scattered clouds at 3000 feet AGL
Weather: +TSGR +TSRA  (unknown weather, heavy rain associated with thunderstorm(s))

METAR text: LTAZ 161750Z 02010G21KT 9999 TS FEW030CB SCT035 BKN180 25/14 Q1009 RMK RWY29 04010KT
Conditions at: LTAZ (NEVSEHIR , TR) observed 1750 UTC 16 June 2019
Temperature: 25.0°C (77°F)
Dewpoint: 14.0°C (57°F) [RH = 50%]
Pressure (altimeter): 29.79 inches Hg (1009.0 mb)
Winds: from the NNE (20 degrees) at 12 MPH (10 knots; 5.1 m/s)
gusting to 24 MPH (21 knots; 10.8 m/s)
Visibility: 6 or more miles (10+ km)
Ceiling: 18000 feet AGL
Clouds: few clouds at 3000 feet AGL
scattered clouds at 3500 feet AGL
broken clouds at 18000 feet AGL
Weather: TS  (thunderstorm)

METAR text: LTAZ 161720Z 34006KT 9999 TS FEW030CB SCT035 BKN180 26/14 Q1009 RMK RWY29 34007KT
Conditions at: LTAZ (NEVSEHIR , TR) observed 1720 UTC 16 June 2019
Temperature: 26.0°C (79°F)
Dewpoint: 14.0°C (57°F) [RH = 48%]
Pressure (altimeter): 29.79 inches Hg (1009.0 mb)
Winds: from the NNW (340 degrees) at 7 MPH (6 knots; 3.1 m/s)
Visibility: 6 or more miles (10+ km)
Ceiling: 18000 feet AGL
Clouds: few clouds at 3000 feet AGL
scattered clouds at 3500 feet AGL
broken clouds at 18000 feet AGL
Weather: TS  (thunderstorm)

METAR text: LTAZ 161650Z 34008KT 9999 FEW030CB SCT180 26/14 Q1009 RMK RWY29 34008KT
Conditions at: LTAZ (NEVSEHIR , TR) observed 1650 UTC 16 June 2019
Temperature: 26.0°C (79°F)
Dewpoint: 14.0°C (57°F) [RH = 48%]
Pressure (altimeter): 29.79 inches Hg (1009.0 mb)
Winds: from the NNW (340 degrees) at 9 MPH (8 knots; 4.1 m/s)
Visibility: 6 or more miles (10+ km)
Ceiling: at least 12,000 feet AGL
Clouds: few clouds at 3000 feet AGL
scattered clouds at 18000 feet AGL
Weather: no significant weather observed at this time

METAR text: LTAZ 161620Z 33007KT 9999 FEW030CB SCT180 27/13 Q1009 RMK RWY29 33006KT
Conditions at: LTAZ (NEVSEHIR , TR) observed 1620 UTC 16 June 2019
Temperature: 27.0°C (81°F)
Dewpoint: 13.0°C (55°F) [RH = 42%]
Pressure (altimeter): 29.79 inches Hg (1009.0 mb)
Winds: from the NNW (330 degrees) at 8 MPH (7 knots; 3.6 m/s)
Visibility: 6 or more miles (10+ km)
Ceiling: at least 12,000 feet AGL
Clouds: few clouds at 3000 feet AGL
scattered clouds at 18000 feet AGL
Weather: no significant weather observed at this time

METAR text: LTAZ 161550Z 32006KT 290V350 9999 FEW030CB SCT180 27/14 Q1009 RMK RWY29 32008KT
Conditions at: LTAZ (NEVSEHIR , TR) observed 1550 UTC 16 June 2019
Temperature: 27.0°C (81°F)
Dewpoint: 14.0°C (57°F) [RH = 45%]
Pressure (altimeter): 29.79 inches Hg (1009.0 mb)
Winds: from the NW (320 degrees) at 7 MPH (6 knots; 3.1 m/s)
Visibility: 6 or more miles (10+ km)
Ceiling: at least 12,000 feet AGL
Clouds: few clouds at 3000 feet AGL
scattered clouds at 18000 feet AGL
Weather: no significant weather observed at this time

METAR text: LTAZ 161520Z 32007KT 290V350 9999 FEW030CB SCT180 28/14 Q1009 RMK RWY29 31008KT
Conditions at: LTAZ (NEVSEHIR , TR) observed 1520 UTC 16 June 2019
Temperature: 28.0°C (82°F)
Dewpoint: 14.0°C (57°F) [RH = 42%]
Pressure (altimeter): 29.79 inches Hg (1009.0 mb)
Winds: from the NW (320 degrees) at 8 MPH (7 knots; 3.6 m/s)
Visibility: 6 or more miles (10+ km)
Ceiling: at least 12,000 feet AGL
Clouds: few clouds at 3000 feet AGL
scattered clouds at 18000 feet AGL
Weather: no significant weather observed at this time

METAR text: LTAZ 161450Z 33010KT 9999 SCT040 28/15 Q1009 REDS
Conditions at: LTAZ (NEVSEHIR , TR) observed 1450 UTC 16 June 2019
Temperature: 28.0°C (82°F)
Dewpoint: 15.0°C (59°F) [RH = 45%]
Pressure (altimeter): 29.79 inches Hg (1009.0 mb)
Winds: from the NNW (330 degrees) at 12 MPH (10 knots; 5.1 m/s)
Visibility: 6 or more miles (10+ km)
Ceiling: at least 12,000 feet AGL
Clouds: scattered clouds at 4000 feet AGL
Weather: no significant weather observed at this time

METAR text: LTAZ 161420Z 28008KT 9999 FEW030CB BKN035 27/13 Q1009 RMK RWY29 28011KT
Conditions at: LTAZ (NEVSEHIR , TR) observed 1420 UTC 16 June 2019
Temperature: 27.0°C (81°F)
Dewpoint: 13.0°C (55°F) [RH = 42%]
Pressure (altimeter): 29.79 inches Hg (1009.0 mb)
Winds: from the W (280 degrees) at 9 MPH (8 knots; 4.1 m/s)
Visibility: 6 or more miles (10+ km)
Ceiling: 3500 feet AGL
Clouds: few clouds at 3000 feet AGL
broken clouds at 3500 feet AGL
Weather: no significant weather observed at this time

METAR text: LTAZ 161350Z 28010KT 9999 FEW030CB BKN035 27/13 Q1009 RMK RWY29 29011KT
Conditions at: LTAZ (NEVSEHIR , TR) observed 1350 UTC 16 June 2019
Temperature: 27.0°C (81°F)
Dewpoint: 13.0°C (55°F) [RH = 42%]
Pressure (altimeter): 29.79 inches Hg (1009.0 mb)
Winds: from the W (280 degrees) at 12 MPH (10 knots; 5.1 m/s)
Visibility: 6 or more miles (10+ km)
Ceiling: 3500 feet AGL
Clouds: few clouds at 3000 feet AGL
broken clouds at 3500 feet AGL
Weather: no significant weather observed at this time

METAR text: LTAZ 161320Z 29010KT 9999 FEW030CB BKN035 28/14 Q1010 RMK RWY29 29013KT
Conditions at: LTAZ (NEVSEHIR , TR) observed 1320 UTC 16 June 2019
Temperature: 28.0°C (82°F)
Dewpoint: 14.0°C (57°F) [RH = 42%]
Pressure (altimeter): 29.82 inches Hg (1010.0 mb)
Winds: from the WNW (290 degrees) at 12 MPH (10 knots; 5.1 m/s)
Visibility: 6 or more miles (10+ km)
Ceiling: 3500 feet AGL
Clouds: few clouds at 3000 feet AGL
broken clouds at 3500 feet AGL
Weather: no significant weather observed at this time

METAR text: LTAZ 161250Z 28010KT 250V310 9999 FEW030CB BKN035 29/13 Q1010 RMK RWY29 28012KT
Conditions at: LTAZ (NEVSEHIR , TR) observed 1250 UTC 16 June 2019
Temperature: 29.0°C (84°F)
Dewpoint: 13.0°C (55°F) [RH = 37%]
Pressure (altimeter): 29.82 inches Hg (1010.0 mb)
Winds: from the W (280 degrees) at 12 MPH (10 knots; 5.1 m/s)
Visibility: 6 or more miles (10+ km)
Ceiling: 3500 feet AGL
Clouds: few clouds at 3000 feet AGL
broken clouds at 3500 feet AGL
Weather: no significant weather observed at this time

METAR text: LTAZ 161220Z 28008KT 240V320 9999 FEW030CB BKN035 29/12 Q1010 RMK RWY29 25008KT 230V300
Conditions at: LTAZ (NEVSEHIR , TR) observed 1220 UTC 16 June 2019
Temperature: 29.0°C (84°F)
Dewpoint: 12.0°C (54°F) [RH = 35%]
Pressure (altimeter): 29.82 inches Hg (1010.0 mb)
Winds: from the W (280 degrees) at 9 MPH (8 knots; 4.1 m/s)
Visibility: 6 or more miles (10+ km)
Ceiling: 3500 feet AGL
Clouds: few clouds at 3000 feet AGL
broken clouds at 3500 feet AGL
Weather: no significant weather observed at this time

METAR text: LTAZ 161150Z VRB02KT 9999 FEW030CB BKN035 28/12 Q1010 RMK RWY29 29007KT 220V330
Conditions at: LTAZ (NEVSEHIR , TR) observed 1150 UTC 16 June 2019
Temperature: 28.0°C (82°F)
Dewpoint: 12.0°C (54°F) [RH = 37%]
Pressure (altimeter): 29.82 inches Hg (1010.0 mb)
Winds: variable direction winds at 2 MPH (2 knots; 1.0 m/s)
Visibility: 6 or more miles (10+ km)
Ceiling: 3500 feet AGL
Clouds: few clouds at 3000 feet AGL
broken clouds at 3500 feet AGL
Weather: no significant weather observed at this time

METAR text: LTAZ 161120Z 24004KT 180V350 9999 SCT040 29/13 Q1011 RMK RWY29 VRB04KT
Conditions at: LTAZ (NEVSEHIR , TR) observed 1120 UTC 16 June 2019
Temperature: 29.0°C (84°F)
Dewpoint: 13.0°C (55°F) [RH = 37%]
Pressure (altimeter): 29.85 inches Hg (1011.0 mb)
Winds: from the WSW (240 degrees) at 5 MPH (4 knots; 2.1 m/s)
Visibility: 6 or more miles (10+ km)
Ceiling: at least 12,000 feet AGL
Clouds: scattered clouds at 4000 feet AGL
Weather: no significant weather observed at this time

METAR text: LTAZ 161050Z VRB02KT 9999 SCT040 28/13 Q1011 RMK RWY29 VRB04KT
Conditions at: LTAZ (NEVSEHIR , TR) observed 1050 UTC 16 June 2019
Temperature: 28.0°C (82°F)
Dewpoint: 13.0°C (55°F) [RH = 40%]
Pressure (altimeter): 29.85 inches Hg (1011.0 mb)
Winds: variable direction winds at 2 MPH (2 knots; 1.0 m/s)
Visibility: 6 or more miles (10+ km)
Ceiling: at least 12,000 feet AGL
Clouds: scattered clouds at 4000 feet AGL
Weather: no significant weather observed at this time

METAR text: LTAZ 161020Z VRB03KT 9999 SCT040 27/14 Q1011 RMK RWY29 VRB04KT
Conditions at: LTAZ (NEVSEHIR , TR) observed 1020 UTC 16 June 2019
Temperature: 27.0°C (81°F)
Dewpoint: 14.0°C (57°F) [RH = 45%]
Pressure (altimeter): 29.85 inches Hg (1011.0 mb)
Winds: variable direction winds at 3 MPH (3 knots; 1.5 m/s)
Visibility: 6 or more miles (10+ km)
Ceiling: at least 12,000 feet AGL
Clouds: scattered clouds at 4000 feet AGL
Weather: no significant weather observed at this time

METAR text: LTAZ 160950Z VRB03KT 9999 SCT040 27/15 Q1012 RMK RWY29 VRB06KT
Conditions at: LTAZ (NEVSEHIR , TR) observed 0950 UTC 16 June 2019
Temperature: 27.0°C (81°F)
Dewpoint: 15.0°C (59°F) [RH = 48%]
Pressure (altimeter): 29.88 inches Hg (1012.0 mb)
Winds: variable direction winds at 3 MPH (3 knots; 1.5 m/s)
Visibility: 6 or more miles (10+ km)
Ceiling: at least 12,000 feet AGL
Clouds: scattered clouds at 4000 feet AGL
Weather: no significant weather observed at this time

METAR text: LTAZ 160920Z VRB03KT 9999 FEW040 25/15 Q1012 RMK RWY29 27006KT 220V300
Conditions at: LTAZ (NEVSEHIR , TR) observed 0920 UTC 16 June 2019
Temperature: 25.0°C (77°F)
Dewpoint: 15.0°C (59°F) [RH = 54%]
Pressure (altimeter): 29.88 inches Hg (1012.0 mb)
Winds: variable direction winds at 3 MPH (3 knots; 1.5 m/s)
Visibility: 6 or more miles (10+ km)
Ceiling: at least 12,000 feet AGL
Clouds: few clouds at 4000 feet AGL
Weather: no significant weather observed at this time

METAR text: LTAZ 160850Z 29005KT 220V360 9999 FEW040 25/16 Q1012 RMK RWY29 28005KT 200V340
Conditions at: LTAZ (NEVSEHIR , TR) observed 0850 UTC 16 June 2019
Temperature: 25.0°C (77°F)
Dewpoint: 16.0°C (61°F) [RH = 57%]
Pressure (altimeter): 29.88 inches Hg (1012.0 mb)
Winds: from the WNW (290 degrees) at 6 MPH (5 knots; 2.6 m/s)
Visibility: 6 or more miles (10+ km)
Ceiling: at least 12,000 feet AGL
Clouds: few clouds at 4000 feet AGL
Weather: no significant weather observed at this time

METAR text: LTAZ 160820Z 26006KT 210V300 9999 FEW040 24/16 Q1012 RMK RWY29 VRB05KT
Conditions at: LTAZ (NEVSEHIR , TR) observed 0820 UTC 16 June 2019
Temperature: 24.0°C (75°F)
Dewpoint: 16.0°C (61°F) [RH = 61%]
Pressure (altimeter): 29.88 inches Hg (1012.0 mb)
Winds: from the W (260 degrees) at 7 MPH (6 knots; 3.1 m/s)
Visibility: 6 or more miles (10+ km)
Ceiling: at least 12,000 feet AGL
Clouds: few clouds at 4000 feet AGL
Weather: no significant weather observed at this time

METAR text: LTAZ 160750Z 30005KT 210V010 9999 FEW040 23/16 Q1012 RMK RWY29 26005KT 160V320
Conditions at: LTAZ (NEVSEHIR , TR) observed 0750 UTC 16 June 2019
Temperature: 23.0°C (73°F)
Dewpoint: 16.0°C (61°F) [RH = 65%]
Pressure (altimeter): 29.88 inches Hg (1012.0 mb)
Winds: from the WNW (300 degrees) at 6 MPH (5 knots; 2.6 m/s)
Visibility: 6 or more miles (10+ km)
Ceiling: at least 12,000 feet AGL
Clouds: few clouds at 4000 feet AGL
Weather: no significant weather observed at this time

METAR text: LTAZ 160720Z 29004KT 220V360 9999 FEW040 23/15 Q1012 RMK RWY29 30004KT 250V360
Conditions at: LTAZ (NEVSEHIR , TR) observed 0720 UTC 16 June 2019
Temperature: 23.0°C (73°F)
Dewpoint: 15.0°C (59°F) [RH = 61%]
Pressure (altimeter): 29.88 inches Hg (1012.0 mb)
Winds: from the WNW (290 degrees) at 5 MPH (4 knots; 2.1 m/s)
Visibility: 6 or more miles (10+ km)
Ceiling: at least 12,000 feet AGL
Clouds: few clouds at 4000 feet AGL
Weather: no significant weather observed at this time

METAR text: LTAZ 160650Z 28003KT 210V330 9999 FEW040 22/15 Q1012 RMK RWY29 27004KT 240V320
Conditions at: LTAZ (NEVSEHIR , TR) observed 0650 UTC 16 June 2019
Temperature: 22.0°C (72°F)
Dewpoint: 15.0°C (59°F) [RH = 65%]
Pressure (altimeter): 29.88 inches Hg (1012.0 mb)
Winds: from the W (280 degrees) at 3 MPH (3 knots; 1.5 m/s)
Visibility: 6 or more miles (10+ km)
Ceiling: at least 12,000 feet AGL
Clouds: few clouds at 4000 feet AGL
Weather: no significant weather observed at this time

METAR text: LTAZ 160620Z VRB01KT 9999 FEW040 20/14 Q1012 RMK RWY29 25003KT 180V310
Conditions at: LTAZ (NEVSEHIR , TR) observed 0620 UTC 16 June 2019
Temperature: 20.0°C (68°F)
Dewpoint: 14.0°C (57°F) [RH = 68%]
Pressure (altimeter): 29.88 inches Hg (1012.0 mb)
Winds: variable direction winds at 1 MPH (1 knots; 0.5 m/s)
Visibility: 6 or more miles (10+ km)
Ceiling: at least 12,000 feet AGL
Clouds: few clouds at 4000 feet AGL
Weather: no significant weather observed at this time

METAR text: LTAZ 160550Z 31003KT 210V350 9999 FEW040 20/15 Q1012 RMK RWY29 30003KT 240V030
Conditions at: LTAZ (NEVSEHIR , TR) observed 0550 UTC 16 June 2019
Temperature: 20.0°C (68°F)
Dewpoint: 15.0°C (59°F) [RH = 73%]
Pressure (altimeter): 29.88 inches Hg (1012.0 mb)
Winds: from the NW (310 degrees) at 3 MPH (3 knots; 1.5 m/s)
Visibility: 6 or more miles (10+ km)
Ceiling: at least 12,000 feet AGL
Clouds: few clouds at 4000 feet AGL
Weather: no significant weather observed at this time

METAR text: LTAZ 160520Z 00000KT 9999 FEW040 19/14 Q1012 RMK RWY29 VRB01KT
Conditions at: LTAZ (NEVSEHIR , TR) observed 0520 UTC 16 June 2019
Temperature: 19.0°C (66°F)
Dewpoint: 14.0°C (57°F) [RH = 73%]
Pressure (altimeter): 29.88 inches Hg (1012.0 mb)
Winds: calm
Visibility: 6 or more miles (10+ km)
Ceiling: at least 12,000 feet AGL
Clouds: few clouds at 4000 feet AGL
Weather: no significant weather observed at this time

METAR text: LTAZ 160450Z 00000KT 9999 FEW040 18/14 Q1012 RMK RWY29 VRB01KT
Conditions at: LTAZ (NEVSEHIR , TR) observed 0450 UTC 16 June 2019
Temperature: 18.0°C (64°F)
Dewpoint: 14.0°C (57°F) [RH = 77%]
Pressure (altimeter): 29.88 inches Hg (1012.0 mb)
Winds: calm
Visibility: 6 or more miles (10+ km)
Ceiling: at least 12,000 feet AGL
Clouds: few clouds at 4000 feet AGL
Weather: no significant weather observed at this time

METAR text: LTAZ 160420Z 00000KT 9999 FEW040 16/14 Q1012 RMK RWY29 06003KT 020V110
Conditions at: LTAZ (NEVSEHIR , TR) observed 0420 UTC 16 June 2019
Temperature: 16.0°C (61°F)
Dewpoint: 14.0°C (57°F) [RH = 88%]
Pressure (altimeter): 29.88 inches Hg (1012.0 mb)
Winds: calm
Visibility: 6 or more miles (10+ km)
Ceiling: at least 12,000 feet AGL
Clouds: few clouds at 4000 feet AGL
Weather: no significant weather observed at this time

METAR text: LTAZ 160350Z 00000KT 9999 FEW040 16/14 Q1012 RMK RWY29 VRB02KT
Conditions at: LTAZ (NEVSEHIR , TR) observed 0350 UTC 16 June 2019
Temperature: 16.0°C (61°F)
Dewpoint: 14.0°C (57°F) [RH = 88%]
Pressure (altimeter): 29.88 inches Hg (1012.0 mb)
Winds: calm
Visibility: 6 or more miles (10+ km)
Ceiling: at least 12,000 feet AGL
Clouds: few clouds at 4000 feet AGL
Weather: no significant weather observed at this time

METAR text: LTAZ 160320Z 00000KT 9999 FEW040 15/13 Q1012 RMK RWY29 00000KT
Conditions at: LTAZ (NEVSEHIR , TR) observed 0320 UTC 16 June 2019
Temperature: 15.0°C (59°F)
Dewpoint: 13.0°C (55°F) [RH = 88%]
Pressure (altimeter): 29.88 inches Hg (1012.0 mb)
Winds: calm
Visibility: 6 or more miles (10+ km)
Ceiling: at least 12,000 feet AGL
Clouds: few clouds at 4000 feet AGL
Weather: no significant weather observed at this time

METAR text: LTAZ 160250Z 00000KT 9999 FEW040 14/13 Q1012 RMK RWY29 19003KT
Conditions at: LTAZ (NEVSEHIR , TR) observed 0250 UTC 16 June 2019
Temperature: 14.0°C (57°F)
Dewpoint: 13.0°C (55°F) [RH = 94%]
Pressure (altimeter): 29.88 inches Hg (1012.0 mb)
Winds: calm
Visibility: 6 or more miles (10+ km)
Ceiling: at least 12,000 feet AGL
Clouds: few clouds at 4000 feet AGL
Weather: no significant weather observed at this time

METAR text: LTAZ 160220Z 00000KT 9999 FEW040 14/14 Q1012 RMK RWY29 32001KT
Conditions at: LTAZ (NEVSEHIR , TR) observed 0220 UTC 16 June 2019
Temperature: 14.0°C (57°F)
Dewpoint: 14.0°C (57°F) [RH = 100%]
Pressure (altimeter): 29.88 inches Hg (1012.0 mb)
Winds: calm
Visibility: 6 or more miles (10+ km)
Ceiling: at least 12,000 feet AGL
Clouds: few clouds at 4000 feet AGL
Weather: no significant weather observed at this time

METAR text: LTAZ 160150Z VRB01KT 9999 SCT040 14/13 Q1012 RMK RWY29 07002KT
Conditions at: LTAZ (NEVSEHIR , TR) observed 0150 UTC 16 June 2019
Temperature: 14.0°C (57°F)
Dewpoint: 13.0°C (55°F) [RH = 94%]
Pressure (altimeter): 29.88 inches Hg (1012.0 mb)
Winds: variable direction winds at 1 MPH (1 knots; 0.5 m/s)
Visibility: 6 or more miles (10+ km)
Ceiling: at least 12,000 feet AGL
Clouds: scattered clouds at 4000 feet AGL
Weather: no significant weather observed at this time

METAR text: LTAZ 160120Z 00000KT 9999 SCT040 15/14 Q1012 RMK RWY29 19003KT
Conditions at: LTAZ (NEVSEHIR , TR) observed 0120 UTC 16 June 2019
Temperature: 15.0°C (59°F)
Dewpoint: 14.0°C (57°F) [RH = 94%]
Pressure (altimeter): 29.88 inches Hg (1012.0 mb)
Winds: calm
Visibility: 6 or more miles (10+ km)
Ceiling: at least 12,000 feet AGL
Clouds: scattered clouds at 4000 feet AGL
Weather: no significant weather observed at this time

METAR text: LTAZ 160050Z 00000KT 9999 SCT040 15/14 Q1012 RMK RWY29 VRB01KT
Conditions at: LTAZ (NEVSEHIR , TR) observed 0050 UTC 16 June 2019
Temperature: 15.0°C (59°F)
Dewpoint: 14.0°C (57°F) [RH = 94%]
Pressure (altimeter): 29.88 inches Hg (1012.0 mb)
Winds: calm
Visibility: 6 or more miles (10+ km)
Ceiling: at least 12,000 feet AGL
Clouds: scattered clouds at 4000 feet AGL
Weather: no significant weather observed at this time

METAR text: LTAZ 160020Z 20002KT 9999 SCT040 16/14 Q1012 RMK RWY29 VRB03KT
Conditions at: LTAZ (NEVSEHIR , TR) observed 0020 UTC 16 June 2019
Temperature: 16.0°C (61°F)
Dewpoint: 14.0°C (57°F) [RH = 88%]
Pressure (altimeter): 29.88 inches Hg (1012.0 mb)
Winds: from the SSW (200 degrees) at 2 MPH (2 knots; 1.0 m/s)
Visibility: 6 or more miles (10+ km)
Ceiling: at least 12,000 feet AGL
Clouds: scattered clouds at 4000 feet AGL
Weather: no significant weather observed at this time

METAR text: LTAZ 152350Z 20004KT 9999 SCT040 15/14 Q1012 RMK RWY29 21004KT
Conditions at: LTAZ (NEVSEHIR , TR) observed 2350 UTC 15 June 2019
Temperature: 15.0°C (59°F)
Dewpoint: 14.0°C (57°F) [RH = 94%]
Pressure (altimeter): 29.88 inches Hg (1012.0 mb)
Winds: from the SSW (200 degrees) at 5 MPH (4 knots; 2.1 m/s)
Visibility: 6 or more miles (10+ km)
Ceiling: at least 12,000 feet AGL
Clouds: scattered clouds at 4000 feet AGL
Weather: no significant weather observed at this time

METAR text: LTAZ 152320Z 00000KT 9999 SCT040 16/14 Q1012 RMK RWY29 VRB01KT
Conditions at: LTAZ (NEVSEHIR , TR) observed 2320 UTC 15 June 2019
Temperature: 16.0°C (61°F)
Dewpoint: 14.0°C (57°F) [RH = 88%]
Pressure (altimeter): 29.88 inches Hg (1012.0 mb)
Winds: calm
Visibility: 6 or more miles (10+ km)
Ceiling: at least 12,000 feet AGL
Clouds: scattered clouds at 4000 feet AGL
Weather: no significant weather observed at this time

Forecast for: LTAZ (NEVSEHIR , TR)
Text: TAF LTAZ 171040Z 1712/1812 VRB02KT 9999 SCT040
Forecast period: 1200 UTC 17 June 2019 to 1200 UTC 18 June 2019
Forecast type: FROM: standard forecast or significant change
Winds: variable direction winds at 2 MPH (2 knots; 1.0 m/s)
Visibility: 6 or more miles 10+ km)
Ceiling: at least 12,000 feet AGL
Clouds: scattered clouds at 4000 feet AGL
Weather: no significant weather forecast for this period
Text: TEMPO 1713/1717 34015G30KT -TSRA FEW027CB BKN030
Forecast period: 1300 to 1700 UTC 17 June 2019
Forecast type: TEMPORARY: The following changes expected for less than half the time period
Winds: from the NNW (340 degrees) at 17 MPH (15 knots; 7.7 m/s)
gusting to 34 MPH (30 knots; 15.4 m/s)
Visibility: missing
Ceiling: 3000 feet AGL
Clouds: few clouds at 2700 feet AGL
broken clouds at 3000 feet AGL
Weather: -TSRA  (light rain associated with thunderstorm(s))
Text: TEMPO 1717/1721 34015G30KT -TSRA FEW027CB BKN030
Forecast period: 1700 to 2100 UTC 17 June 2019
Forecast type: TEMPORARY: The following changes expected for less than half the time period
Winds: from the NNW (340 degrees) at 17 MPH (15 knots; 7.7 m/s)
gusting to 34 MPH (30 knots; 15.4 m/s)
Visibility: missing
Ceiling: 3000 feet AGL
Clouds: few clouds at 2700 feet AGL
broken clouds at 3000 feet AGL
Weather: -TSRA  (light rain associated with thunderstorm(s))
Text: PROB40
Forecast period: 2100 UTC 17 June 2019 to 0000 UTC 18 June 2019
Forecast type: TEMPORARY: The following changes expected for less than half the time period
Visibility: missing
Ceiling: 3000 feet AGL
Clouds: broken clouds at 3000 feet AGL
broken clouds at 8000 feet AGL
Weather: -SHRA  (light rain showers)
Text: TEMPO 1721/1724 -SHRA BKN030 BKN080
Forecast period: 0200 to 0600 UTC 18 June 2019
Forecast type: TEMPORARY: The following changes expected for less than half the time period
Visibility: missing
Ceiling: 3000 feet AGL
Clouds: broken clouds at 3000 feet AGL
broken clouds at 8000 feet AGL
Weather: -SHRA  (light rain showers)
Text: TEMPO 1802/1806 -SHRA BKN030 BKN080
Forecast period: 0900 to 1200 UTC 18 June 2019
Forecast type: TEMPORARY: The following changes expected for less than half the time period
Winds: from the NNW (340 degrees) at 17 MPH (15 knots; 7.7 m/s)
gusting to 29 MPH (25 knots; 12.9 m/s)
Visibility: missing
Ceiling: 3000 feet AGL
Clouds: few clouds at 2500 feet AGL
broken clouds at 3000 feet AGL
Weather: -TSRA  (light rain associated with thunderstorm(s))